Forside
METAR-TAF:

METAR-TAF

Lufthavne :

Kolkata, Indien

Breddekreds: 22-39N, længdekreds: 088-27E, højde: 4 m

Aktuelle vejr

Denne rapport blev lavet for 32 minutter siden, kl. 20:30 UTC
Vind 6 kt fra nordøst
Temperatur 28°C
Fugtighed 94%
Tryk 997 hPa
Sigt: 2800 m
Spredte skyer i en højde af 1800 ft
Brudte skyer i en højde af 9000 ft
let regn

METAR: VECC 142030Z 05006KT 2800 -RA SCT018 BKN090 28/27 Q0997 NOSIG

Tid: 02:32 (21:02 UTC)

Vejrudsigter

Denne rapport blev lavet for 1 time og 2 minutter siden, kl. 20:00 UTC
Foreløbig gælder fra 14 på 21 UTC til 15 på 06 UTC
Vind 8 kt fra øst
Sigt: 3200 m
Spredte skyer i en højde af 1800 ft
Brudte skyer i en højde af 10000 ft
let regn, tåge/dis
ændring
fra 14 på 22 UTC til 14 på 24 UTC
Sigt: 2600 m
let regn, tåge/dis
ændring
fra 15 på 02 UTC til 15 på 04 UTC
Sigt: 3200 m
let regn, tåge/dis

TAF: VECC 142000Z 1421/1506 09008KT 3200 -RA HZ SCT018 BKN100 BECMG 1422/1424 2600 -RA HZ BECMG 1502/1504 3200 -RA HZ

Vejrobservationer og prognoser fra mere end 4000 lufthavne (METAR og TAF).

De gule og røde prikker repræsenterer de meteorologiske stationer.

Flyt musen over at se navnet på stationen.

Så klik over at se vejr observationer og prognoser.

At skifte det kort: Klik på de grønne knapper med et sort kors for at zoome ind; på den grønne knap med en bindestreg for at zoome ud; eller på de grønne pile for tilstødende kort.


METAR-TAF: